createdAt,value
2018-03-07T00:00:47.475Z,0
2018-03-07T00:01:47.541Z,0
2018-03-07T00:02:47.756Z,0
2018-03-07T00:03:47.523Z,0
2018-03-07T00:04:47.976Z,0
2018-03-07T00:05:47.554Z,0
2018-03-07T00:06:47.577Z,0
2018-03-07T00:07:47.586Z,0
2018-03-07T00:08:47.857Z,0
2018-03-07T00:09:47.622Z,0
2018-03-07T00:10:47.377Z,0
2018-03-07T00:11:47.646Z,0
2018-03-07T00:12:47.918Z,0
2018-03-07T00:13:47.430Z,0
2018-03-07T00:14:47.985Z,0
2018-03-07T00:15:47.715Z,0
2018-03-07T00:16:47.780Z,0
2018-03-07T00:17:47.748Z,0
2018-03-07T00:18:47.762Z,0
2018-03-07T00:19:48.043Z,0
2018-03-07T00:20:47.796Z,0
2018-03-07T00:21:48.064Z,0
2018-03-07T00:22:47.315Z,0
2018-03-07T00:23:48.154Z,0
2018-03-07T00:24:47.600Z,0
2018-03-07T00:25:47.616Z,0
2018-03-07T00:26:47.890Z,0
2018-03-07T00:27:47.900Z,0
2018-03-07T00:28:48.176Z,0
2018-03-07T00:29:48.190Z,0
2018-03-07T00:30:47.948Z,0
2018-03-07T00:31:48.267Z,0
2018-03-07T00:32:48.247Z,0
2018-03-07T00:33:48.254Z,0
2018-03-07T00:34:47.760Z,0
2018-03-07T00:35:48.025Z,0
2018-03-07T00:36:47.535Z,0
2018-03-07T00:37:48.054Z,0
2018-03-07T00:38:48.320Z,0
2018-03-07T00:39:48.095Z,0
2018-03-07T00:40:48.112Z,0
2018-03-07T00:41:47.866Z,0
2018-03-07T00:42:47.883Z,0
2018-03-07T00:43:47.900Z,0
2018-03-07T00:44:47.916Z,0
2018-03-07T00:45:48.432Z,0
2018-03-07T00:46:47.992Z,0
2018-03-07T00:47:47.963Z,0
2018-03-07T00:48:48.486Z,0
2018-03-07T00:49:48.250Z,0
2018-03-07T00:50:48.518Z,0
2018-03-07T00:51:48.278Z,0
2018-03-07T00:52:48.289Z,0
2018-03-07T00:53:48.307Z,0
2018-03-07T00:54:48.584Z,0
2018-03-07T00:55:48.344Z,0
2018-03-07T00:56:48.609Z,0
2018-03-07T00:57:48.624Z,0
2018-03-07T00:58:48.638Z,0
2018-03-07T00:59:48.677Z,0
2018-03-07T01:00:48.662Z,0
2018-03-07T01:01:48.735Z,0
2018-03-07T01:02:48.441Z,0
2018-03-07T01:03:48.216Z,0
2018-03-07T01:04:48.732Z,0
2018-03-07T01:05:48.743Z,0
2018-03-07T01:06:48.506Z,0
2018-03-07T01:07:48.782Z,0
2018-03-07T01:08:48.789Z,0
2018-03-07T01:09:48.555Z,0
2018-03-07T01:10:48.577Z,0
2018-03-07T01:11:48.851Z,0
2018-03-07T01:12:48.605Z,0
2018-03-07T01:13:48.877Z,0
2018-03-07T01:14:48.633Z,0
2018-03-07T01:15:48.650Z,0
2018-03-07T01:16:48.722Z,0
2018-03-07T01:17:48.671Z,0
2018-03-07T01:18:48.936Z,0
2018-03-07T01:19:48.200Z,0
2018-03-07T01:20:48.715Z,0
2018-03-07T01:21:48.480Z,0
2018-03-07T01:22:48.498Z,0
2018-03-07T01:23:49.040Z,0
2018-03-07T01:24:49.048Z,0
2018-03-07T01:25:48.805Z,0
2018-03-07T01:26:48.918Z,0
2018-03-07T01:27:48.838Z,0
2018-03-07T01:28:49.107Z,0
2018-03-07T01:29:48.868Z,0
2018-03-07T01:30:49.133Z,0
2018-03-07T01:31:49.200Z,0
2018-03-07T01:32:49.165Z,0
2018-03-07T01:33:49.180Z,0
2018-03-07T01:34:49.201Z,0
2018-03-07T01:35:48.966Z,0
2018-03-07T01:36:49.227Z,0
2018-03-07T01:37:48.729Z,0
2018-03-07T01:38:48.748Z,0
2018-03-07T01:39:49.013Z,0
2018-03-07T01:40:49.033Z,0
2018-03-07T01:41:49.051Z,0
2018-03-07T01:42:49.068Z,0
2018-03-07T01:43:49.093Z,0
2018-03-07T01:44:49.354Z,0
2018-03-07T01:45:49.176Z,0
2018-03-07T01:46:49.135Z,0
2018-03-07T01:47:49.143Z,0
2018-03-07T01:48:48.901Z,0
2018-03-07T01:49:49.425Z,0
2018-03-07T01:50:49.266Z,0
2018-03-07T01:51:49.468Z,0
2018-03-07T01:52:49.227Z,0
2018-03-07T01:53:49.481Z,0
2018-03-07T01:54:49.502Z,0
2018-03-07T01:55:49.515Z,0
2018-03-07T01:56:49.285Z,0
2018-03-07T01:57:49.295Z,0
2018-03-07T01:58:49.564Z,0
2018-03-07T01:59:49.320Z,0
2018-03-07T02:00:49.089Z,0
2018-03-07T02:01:49.355Z,0
2018-03-07T02:02:49.370Z,0
2018-03-07T02:05:26.984Z,0
2018-03-07T02:05:36.319Z,0
2018-03-07T02:21:50.592Z,0
2018-03-07T02:22:50.348Z,0
2018-03-07T02:23:50.615Z,0
2018-03-07T02:24:50.889Z,0
2018-03-07T02:25:50.643Z,0
2018-03-07T02:26:50.660Z,0
2018-03-07T02:27:50.424Z,0
2018-03-07T02:28:50.440Z,0
2018-03-07T02:29:50.707Z,0
2018-03-07T02:30:50.734Z,0
2018-03-07T02:31:51.001Z,0
2018-03-07T02:32:50.572Z,0
2018-03-07T02:33:50.774Z,0
2018-03-07T02:34:50.531Z,0
2018-03-07T02:35:51.062Z,0
2018-03-07T02:36:50.871Z,0
2018-03-07T02:37:50.583Z,0
2018-03-07T02:38:51.112Z,0
2018-03-07T02:39:51.129Z,0
2018-03-07T02:40:50.895Z,0
2018-03-07T02:41:51.144Z,0
2018-03-07T02:42:51.157Z,0
2018-03-07T02:43:50.924Z,0
2018-03-07T02:44:50.929Z,0
2018-03-07T02:45:50.945Z,0
2018-03-07T02:46:51.216Z,0
2018-03-07T02:47:50.995Z,0
2018-03-07T02:48:50.746Z,0
2018-03-07T02:49:51.014Z,0
2018-03-07T02:50:51.305Z,0
2018-03-07T02:51:51.354Z,0
2018-03-07T02:52:51.321Z,0
2018-03-07T02:53:51.096Z,0
2018-03-07T02:54:51.094Z,0
2018-03-07T02:55:51.110Z,0
2018-03-07T02:56:51.394Z,0
2018-03-07T02:57:51.133Z,0
2018-03-07T02:58:51.163Z,0
2018-03-07T02:59:51.429Z,0
2018-03-07T03:00:51.460Z,0
2018-03-07T03:01:51.453Z,0
2018-03-07T03:02:51.229Z,0
2018-03-07T03:03:51.482Z,0
2018-03-07T03:04:50.992Z,0
2018-03-07T03:05:51.007Z,0
2018-03-07T03:06:51.331Z,0
2018-03-07T03:07:51.291Z,0
2018-03-07T03:08:51.304Z,0
2018-03-07T03:09:51.574Z,0
2018-03-07T03:10:51.086Z,0
2018-03-07T03:11:51.604Z,0
2018-03-07T03:12:51.363Z,0
2018-03-07T03:13:51.637Z,0
2018-03-07T03:14:51.412Z,0
2018-03-07T03:15:51.663Z,0
2018-03-07T03:16:51.680Z,0
2018-03-07T03:17:51.187Z,0
2018-03-07T03:18:51.459Z,0
2018-03-07T03:19:51.731Z,0
2018-03-07T03:20:51.517Z,0
2018-03-07T03:21:51.318Z,0
2018-03-07T03:22:51.006Z,0
2018-03-07T03:23:51.536Z,0
2018-03-07T03:24:51.300Z,0
2018-03-07T03:25:51.818Z,0
2018-03-07T03:26:51.322Z,0
2018-03-07T03:27:51.854Z,0
2018-03-07T03:28:51.866Z,0
2018-03-07T03:29:51.379Z,0
2018-03-07T03:30:51.906Z,0
2018-03-07T03:31:51.394Z,0
2018-03-07T03:32:51.924Z,0
2018-03-07T03:33:51.721Z,0
2018-03-07T03:34:51.971Z,0
2018-03-07T03:35:51.972Z,0
2018-03-07T03:36:51.783Z,0
2018-03-07T03:37:51.760Z,0
2018-03-07T03:38:52.028Z,0
2018-03-07T03:39:51.530Z,0
2018-03-07T03:40:52.054Z,0
2018-03-07T03:41:51.811Z,0
2018-03-07T03:42:52.089Z,0
2018-03-07T03:43:52.097Z,0
2018-03-07T03:44:51.606Z,0
2018-03-07T03:45:52.190Z,0
2018-03-07T03:46:51.944Z,0
2018-03-07T03:47:52.162Z,0
2018-03-07T03:48:52.176Z,0
2018-03-07T03:49:51.696Z,0
2018-03-07T03:50:51.949Z,0
2018-03-07T03:51:51.970Z,0
2018-03-07T03:52:51.986Z,0
2018-03-07T03:53:51.997Z,0
2018-03-07T03:54:52.267Z,0
2018-03-07T03:55:51.774Z,0
2018-03-07T03:56:52.301Z,0
2018-03-07T03:57:51.805Z,0
2018-03-07T03:58:52.082Z,0
2018-03-07T03:59:52.097Z,0
2018-03-07T04:00:52.106Z,0
2018-03-07T04:01:52.431Z,0
2018-03-07T04:02:51.647Z,0
2018-03-07T04:03:52.168Z,0
2018-03-07T04:04:52.170Z,0
2018-03-07T04:05:52.439Z,0
2018-03-07T04:06:52.501Z,0
2018-03-07T04:07:52.472Z,0
2018-03-07T04:08:52.252Z,0
2018-03-07T04:09:51.738Z,0
2018-03-07T04:10:52.007Z,0
2018-03-07T04:11:52.271Z,0
2018-03-07T04:12:52.293Z,0
2018-03-07T04:13:52.053Z,0
2018-03-07T04:14:52.573Z,0
2018-03-07T04:15:52.399Z,0
2018-03-07T04:16:52.403Z,0
2018-03-07T04:17:52.361Z,0
2018-03-07T04:18:52.132Z,0
2018-03-07T04:19:51.892Z,0
2018-03-07T04:20:52.420Z,0
2018-03-07T04:21:52.702Z,0
2018-03-07T04:22:52.446Z,0
2018-03-07T04:23:52.722Z,0
2018-03-07T04:24:52.221Z,0
2018-03-07T04:25:52.238Z,0
2018-03-07T04:26:52.504Z,0
2018-03-07T04:27:52.266Z,0
2018-03-07T04:28:52.806Z,0
2018-03-07T04:29:52.298Z,0
2018-03-07T04:30:52.583Z,0
2018-03-07T04:31:52.382Z,0
2018-03-07T04:32:52.341Z,0
2018-03-07T04:33:52.620Z,0
2018-03-07T04:34:52.376Z,0
2018-03-07T04:35:52.643Z,0
2018-03-07T04:36:52.411Z,0
2018-03-07T04:37:52.953Z,0
2018-03-07T04:38:52.939Z,0
2018-03-07T04:39:52.957Z,0
2018-03-07T04:40:53.006Z,0
2018-03-07T04:41:52.533Z,0
2018-03-07T04:42:53.018Z,0
2018-03-07T04:43:52.762Z,0
2018-03-07T04:44:52.805Z,0
2018-03-07T04:45:52.792Z,0
2018-03-07T04:46:52.813Z,0
2018-03-07T04:47:53.083Z,0
2018-03-07T04:48:52.852Z,0
2018-03-07T04:49:53.114Z,0
2018-03-07T04:50:52.368Z,0
2018-03-07T04:51:53.145Z,0
2018-03-07T04:52:53.171Z,0
2018-03-07T04:53:53.180Z,0
2018-03-07T04:54:52.680Z,0
2018-03-07T04:55:53.211Z,0
2018-03-07T04:56:53.015Z,0
2018-03-07T04:57:52.731Z,0
2018-03-07T04:58:53.260Z,0
2018-03-07T04:59:52.760Z,0
2018-03-07T05:00:53.291Z,0
2018-03-07T05:01:53.054Z,0
2018-03-07T05:02:53.538Z,0
2018-03-07T05:03:53.073Z,0
2018-03-07T05:04:53.362Z,0
2018-03-07T05:05:53.103Z,0
2018-03-07T05:06:53.380Z,0
2018-03-07T05:07:52.877Z,0
2018-03-07T05:08:52.896Z,0
2018-03-07T05:09:53.172Z,0
2018-03-07T05:10:53.438Z,0
2018-03-07T05:11:52.995Z,0
2018-03-07T05:12:53.217Z,0
2018-03-07T05:13:53.481Z,0
2018-03-07T05:14:53.496Z,0
2018-03-07T05:15:53.512Z,0
2018-03-07T05:16:53.587Z,0
2018-03-07T05:17:53.294Z,0
2018-03-07T05:18:53.393Z,0
2018-03-07T05:19:53.326Z,4
2018-03-07T05:20:53.591Z,0
2018-03-07T05:21:53.356Z,4
2018-03-07T05:22:53.373Z,4
2018-03-07T05:23:53.640Z,4
2018-03-07T05:24:53.393Z,8
2018-03-07T05:25:53.661Z,4
2018-03-07T05:26:53.693Z,4
2018-03-07T05:27:53.694Z,12
2018-03-07T05:28:53.206Z,12
2018-03-07T05:29:53.476Z,12
2018-03-07T05:30:53.498Z,16
2018-03-07T05:31:53.300Z,16
2018-03-07T05:32:53.266Z,16
2018-03-07T05:33:53.535Z,24
2018-03-07T05:34:53.569Z,28
2018-03-07T05:35:53.587Z,28
2018-03-07T05:36:53.584Z,32
2018-03-07T05:37:53.846Z,36
2018-03-07T05:38:53.888Z,40
2018-03-07T05:39:53.874Z,52
2018-03-07T05:40:53.389Z,56
2018-03-07T05:41:53.914Z,60
2018-03-07T05:42:53.931Z,68
2018-03-07T05:43:53.943Z,76
2018-03-07T05:44:53.953Z,84
2018-03-07T05:45:53.722Z,92
2018-03-07T05:46:53.787Z,104
2018-03-07T05:47:54.005Z,116
2018-03-07T05:48:54.021Z,128
2018-03-07T05:49:54.037Z,140
2018-03-07T05:50:53.814Z,160
2018-03-07T05:51:53.812Z,180
2018-03-07T05:52:54.091Z,196
2018-03-07T05:53:53.586Z,216
2018-03-07T05:54:53.857Z,236
2018-03-07T05:55:54.127Z,256
2018-03-07T05:56:53.889Z,276
2018-03-07T05:57:53.635Z,296
2018-03-07T05:58:54.173Z,312
2018-03-07T05:59:54.190Z,332
2018-03-07T06:00:54.204Z,344
2018-03-07T06:01:54.268Z,372
2018-03-07T06:02:54.027Z,392
2018-03-07T06:03:54.240Z,424
2018-03-07T06:04:54.010Z,468
2018-03-07T06:05:54.020Z,500
2018-03-07T06:06:54.042Z,532
2018-03-07T06:07:54.306Z,564
2018-03-07T06:08:53.815Z,600
2018-03-07T06:09:53.831Z,644
2018-03-07T06:10:54.352Z,688
2018-03-07T06:11:54.114Z,736
2018-03-07T06:12:54.388Z,792
2018-03-07T06:13:54.155Z,856
2018-03-07T06:14:54.154Z,916
2018-03-07T06:15:54.176Z,964
2018-03-07T06:16:54.498Z,1012
2018-03-07T06:17:54.466Z,1052
2018-03-07T06:18:54.212Z,1064
2018-03-07T06:19:54.233Z,1068
2018-03-07T06:20:54.501Z,1076
2018-03-07T06:21:54.273Z,1092
2018-03-07T06:22:54.281Z,1116
2018-03-07T06:23:54.043Z,1140
2018-03-07T06:24:54.313Z,1160
2018-03-07T06:25:54.578Z,1176
2018-03-07T06:26:54.372Z,1172
2018-03-07T06:27:54.611Z,1168
2018-03-07T06:28:54.624Z,1164
2018-03-07T06:29:54.142Z,1168
2018-03-07T06:30:54.659Z,1184
2018-03-07T06:31:54.722Z,1204
2018-03-07T06:32:54.689Z,1244
2018-03-07T06:33:54.699Z,1284
2018-03-07T06:34:54.206Z,1320
2018-03-07T06:35:54.731Z,1360
2018-03-07T06:36:54.756Z,1404
2018-03-07T06:37:54.762Z,1456
2018-03-07T06:38:54.013Z,1500
2018-03-07T06:39:54.819Z,1504
2018-03-07T06:40:54.298Z,1516
2018-03-07T06:41:54.329Z,1484
2018-03-07T06:42:54.847Z,1468
2018-03-07T06:43:54.851Z,1508
2018-03-07T06:44:54.621Z,1544
2018-03-07T06:45:54.631Z,1592
2018-03-07T06:46:54.949Z,1624
2018-03-07T06:47:54.686Z,1676
2018-03-07T06:48:54.678Z,1888
2018-03-07T06:49:54.942Z,1680
2018-03-07T06:50:54.732Z,1716
2018-03-07T06:51:54.468Z,1748
2018-03-07T06:52:54.486Z,1796
2018-03-07T06:53:54.746Z,1864
2018-03-07T06:54:54.764Z,1932
2018-03-07T06:55:54.794Z,2016
2018-03-07T06:56:54.795Z,2116
2018-03-07T06:57:54.567Z,2224
2018-03-07T06:58:54.832Z,2352
2018-03-07T06:59:54.873Z,2480
2018-03-07T07:00:54.863Z,2564
2018-03-07T07:01:55.186Z,2612
2018-03-07T07:02:54.637Z,2612
2018-03-07T07:03:54.656Z,2600
2018-03-07T07:04:55.176Z,2628
2018-03-07T07:05:54.946Z,2892
2018-03-07T07:06:54.946Z,2784
2018-03-07T07:07:54.970Z,2892
2018-03-07T07:08:54.984Z,2956
2018-03-07T07:09:55.005Z,3392
2018-03-07T07:10:54.765Z,4060
2018-03-07T07:11:55.033Z,4268
2018-03-07T07:12:55.306Z,4324
2018-03-07T07:13:55.368Z,4184
2018-03-07T07:14:55.340Z,4188
2018-03-07T07:15:55.347Z,4364
2018-03-07T07:16:54.967Z,3276
2018-03-07T07:17:55.393Z,3652
2018-03-07T07:18:55.409Z,4612
2018-03-07T07:19:55.158Z,4876
2018-03-07T07:20:55.426Z,4836
2018-03-07T07:21:55.438Z,4912
2018-03-07T07:22:55.451Z,5068
2018-03-07T07:23:55.468Z,5036
2018-03-07T07:24:55.237Z,4772
2018-03-07T07:25:55.256Z,5168
2018-03-07T07:26:55.266Z,5548
2018-03-07T07:27:55.532Z,5392
2018-03-07T07:28:55.295Z,5192
2018-03-07T07:29:55.051Z,5516
2018-03-07T07:30:55.583Z,5568
2018-03-07T07:31:55.341Z,5480
2018-03-07T07:32:55.610Z,5384
2018-03-07T07:33:55.621Z,5340
2018-03-07T07:34:55.695Z,5160
2018-03-07T07:35:55.659Z,5076
2018-03-07T07:36:55.420Z,5220
2018-03-07T07:37:55.437Z,5280
2018-03-07T07:38:55.455Z,5224
2018-03-07T07:39:55.728Z,5188
2018-03-07T07:40:55.244Z,5168
2018-03-07T07:41:55.506Z,5084
2018-03-07T07:42:55.787Z,5320
2018-03-07T07:43:55.782Z,5460
2018-03-07T07:44:55.800Z,5504
2018-03-07T07:45:55.568Z,5600
2018-03-07T07:46:55.330Z,5560
2018-03-07T07:47:55.591Z,5656
2018-03-07T07:48:55.360Z,5664
2018-03-07T07:49:55.683Z,5876
2018-03-07T07:50:55.593Z,5584
2018-03-07T07:51:55.916Z,5232
2018-03-07T07:52:55.431Z,5484
2018-03-07T07:53:55.697Z,5832
2018-03-07T07:54:55.967Z,6080
2018-03-07T07:55:55.983Z,5880
2018-03-07T07:56:55.745Z,6272
2018-03-07T07:57:55.757Z,6816
2018-03-07T07:58:55.521Z,6568
2018-03-07T07:59:55.799Z,7812
2018-03-07T08:00:56.063Z,6500
2018-03-07T08:01:56.074Z,6740
2018-03-07T08:02:56.113Z,6572
2018-03-07T08:03:55.858Z,6808
2018-03-07T08:04:55.922Z,7088
2018-03-07T08:05:55.925Z,6876
2018-03-07T08:06:55.650Z,7068
2018-03-07T08:07:55.918Z,7372
2018-03-07T08:08:55.933Z,7424
2018-03-07T08:09:55.954Z,7432
2018-03-07T08:10:56.218Z,7444
2018-03-07T08:11:55.990Z,7548
2018-03-07T08:12:56.253Z,7600
2018-03-07T08:13:56.024Z,7348
2018-03-07T08:14:56.036Z,7316
2018-03-07T08:15:56.313Z,7240
2018-03-07T08:16:56.318Z,7356
2018-03-07T08:17:56.336Z,7372
2018-03-07T08:18:56.358Z,7320
2018-03-07T08:19:56.429Z,7376
2018-03-07T08:20:55.880Z,7632
2018-03-07T08:21:56.158Z,8464
2018-03-07T08:22:56.173Z,10428
2018-03-07T08:23:55.928Z,9616
2018-03-07T08:24:55.954Z,9264
2018-03-07T08:25:56.477Z,8168
2018-03-07T08:26:55.980Z,8140
2018-03-07T08:27:56.516Z,8384
2018-03-07T08:28:56.528Z,9316
2018-03-07T08:29:56.289Z,9016
2018-03-07T08:30:56.574Z,9412
2018-03-07T08:31:56.343Z,9804
2018-03-07T08:32:56.340Z,9708
2018-03-07T08:33:56.106Z,9024
2018-03-07T08:34:56.448Z,8416
2018-03-07T08:35:56.655Z,8208
2018-03-07T08:36:56.659Z,9716
2018-03-07T08:37:56.442Z,9756
2018-03-07T08:38:56.698Z,8692
2018-03-07T08:39:56.459Z,7216
2018-03-07T08:40:56.737Z,6652
2018-03-07T08:41:56.508Z,6408
2018-03-07T08:42:56.521Z,6408
2018-03-07T08:43:56.533Z,6460
2018-03-07T08:44:57.104Z,6652
2018-03-07T08:45:56.881Z,6732
2018-03-07T08:46:56.591Z,6816
2018-03-07T08:47:56.346Z,6896
2018-03-07T08:48:56.620Z,7064
2018-03-07T08:49:56.635Z,7216
2018-03-07T08:50:56.396Z,7344
2018-03-07T08:51:56.676Z,7528
2018-03-07T08:52:56.687Z,7568
2018-03-07T08:53:56.454Z,7484
2018-03-07T08:54:56.825Z,7460
2018-03-07T08:55:56.739Z,7276
2018-03-07T08:56:57.006Z,6988
2018-03-07T08:57:57.030Z,6752
2018-03-07T08:58:56.788Z,6568
2018-03-07T08:59:56.864Z,6940
2018-03-07T09:00:56.829Z,6560
2018-03-07T09:01:57.100Z,6424
2018-03-07T09:02:56.859Z,6392
2018-03-07T09:03:56.887Z,6736
2018-03-07T09:04:56.916Z,6636
2018-03-07T09:05:57.170Z,7288
2018-03-07T09:06:57.205Z,6140
2018-03-07T09:07:56.947Z,7816
2018-03-07T09:08:57.240Z,7848
2018-03-07T09:09:56.982Z,8420
2018-03-07T09:10:57.008Z,9196
2018-03-07T09:11:57.271Z,9148
2018-03-07T09:12:57.041Z,9424
2018-03-07T09:13:57.315Z,9036
2018-03-07T09:14:57.373Z,9660
2018-03-07T09:15:57.090Z,9704
2018-03-07T09:16:56.848Z,10148
2018-03-07T09:17:57.118Z,8848
2018-03-07T09:18:57.402Z,11532
2018-03-07T09:19:57.410Z,10988
2018-03-07T09:20:57.425Z,11228
2018-03-07T09:21:57.189Z,10880
2018-03-07T09:22:56.950Z,9804
2018-03-07T09:23:56.975Z,10488
2018-03-07T09:24:57.244Z,11940
2018-03-07T09:25:57.523Z,11540
2018-03-07T09:26:57.285Z,11800
2018-03-07T09:27:57.301Z,12104
2018-03-07T09:28:57.722Z,12068
2018-03-07T09:29:57.637Z,12948
2018-03-07T09:30:57.353Z,12692
2018-03-07T09:31:57.380Z,12872
2018-03-07T09:32:57.384Z,12624
2018-03-07T09:33:57.149Z,14056
2018-03-07T09:34:57.443Z,12264
2018-03-07T09:35:57.692Z,12148
2018-03-07T09:36:57.462Z,12464
2018-03-07T09:37:57.727Z,12484
2018-03-07T09:38:57.754Z,11680
2018-03-07T09:39:57.259Z,12376
2018-03-07T09:40:57.792Z,12388
2018-03-07T09:41:57.804Z,12052
2018-03-07T09:42:57.570Z,11884
2018-03-07T09:43:57.846Z,11912
2018-03-07T09:44:57.910Z,11488
2018-03-07T09:45:57.626Z,10892
2018-03-07T09:46:57.897Z,10408
2018-03-07T09:47:57.665Z,9308
2018-03-07T09:48:57.935Z,9068
2018-03-07T09:49:57.702Z,9456
2018-03-07T09:50:57.718Z,9840
2018-03-07T09:51:57.739Z,10344
2018-03-07T09:52:57.759Z,11112
2018-03-07T09:53:58.033Z,11816
2018-03-07T09:54:58.058Z,12396
2018-03-07T09:55:57.571Z,12496
2018-03-07T09:56:58.088Z,12396
2018-03-07T09:57:57.851Z,11552
2018-03-07T09:58:57.873Z,10804
2018-03-07T09:59:57.636Z,10464
2018-03-07T10:00:58.176Z,10036
2018-03-07T10:01:58.330Z,9720
2018-03-07T10:02:57.700Z,9480
2018-03-07T10:03:57.997Z,9700
2018-03-07T10:04:58.003Z,10612
2018-03-07T10:05:58.010Z,11904
2018-03-07T10:06:58.046Z,13312
2018-03-07T10:07:58.303Z,14528
2018-03-07T10:08:58.323Z,15680
2018-03-07T10:09:57.827Z,17120
2018-03-07T10:10:58.104Z,19072
2018-03-07T10:11:58.378Z,18304
2018-03-07T10:12:58.401Z,17792
2018-03-07T10:13:58.416Z,19520
2018-03-07T10:14:58.185Z,22496
2018-03-07T10:15:57.945Z,20096
2018-03-07T10:16:58.542Z,21472
2018-03-07T10:17:58.493Z,18880
2018-03-07T10:18:58.536Z,21888
2018-03-07T10:19:58.543Z,16384
2018-03-07T10:20:58.628Z,14752
2018-03-07T10:21:58.067Z,12968
2018-03-07T10:22:58.437Z,10444
2018-03-07T10:23:58.102Z,8796
2018-03-07T10:24:58.379Z,7984
2018-03-07T10:25:58.395Z,7240
2018-03-07T10:26:58.662Z,6680
2018-03-07T10:27:58.695Z,6092
2018-03-07T10:28:58.714Z,5812
2018-03-07T10:29:58.734Z,6204
2018-03-07T10:30:58.748Z,6616
2018-03-07T10:31:58.564Z,7224
2018-03-07T10:32:58.794Z,7952
2018-03-07T10:33:58.567Z,8644
2018-03-07T10:34:58.574Z,10196
2018-03-07T10:35:58.590Z,9628
2018-03-07T10:36:58.868Z,9480
2018-03-07T10:37:58.953Z,8868
2018-03-07T10:38:58.390Z,7720
2018-03-07T10:39:58.669Z,6812
2018-03-07T10:40:58.683Z,7352
2018-03-07T10:41:58.708Z,8560
2018-03-07T10:42:58.481Z,9820
2018-03-07T10:43:58.491Z,9924
2018-03-07T10:44:58.758Z,9272
2018-03-07T10:45:59.030Z,8996
2018-03-07T10:46:58.798Z,8492
2018-03-07T10:47:58.710Z,8340
2018-03-07T10:48:59.102Z,9036
2018-03-07T10:49:58.861Z,9544
2018-03-07T10:50:59.133Z,10392
2018-03-07T10:51:58.893Z,11164
2018-03-07T10:52:58.653Z,11940
2018-03-07T10:53:59.186Z,12020
2018-03-07T10:54:59.201Z,11768
2018-03-07T10:55:58.808Z,13856
2018-03-07T10:56:58.729Z,10920
2018-03-07T10:57:59.259Z,11004
2018-03-07T10:58:59.020Z,11180
2018-03-07T10:59:59.045Z,11212
2018-03-07T11:00:59.058Z,11384
2018-03-07T11:01:59.092Z,11524
2018-03-07T11:02:59.399Z,11900
2018-03-07T11:03:59.135Z,12116
2018-03-07T11:04:59.144Z,12936
2018-03-07T11:05:58.645Z,13324
2018-03-07T11:06:58.920Z,14184
2018-03-07T11:07:59.453Z,13100
2018-03-07T11:08:59.219Z,13824
2018-03-07T11:09:59.231Z,13456
2018-03-07T11:10:59.292Z,12552
2018-03-07T11:11:59.517Z,11720
2018-03-07T11:12:59.552Z,11072
2018-03-07T11:13:59.514Z,10648
2018-03-07T11:14:59.328Z,10356
2018-03-07T11:15:59.605Z,10544
2018-03-07T11:16:59.613Z,11016
2018-03-07T11:17:59.439Z,11684
2018-03-07T11:18:59.423Z,12784
2018-03-07T11:19:59.423Z,13520
2018-03-07T11:20:59.694Z,14816
2018-03-07T11:21:59.458Z,16704
2018-03-07T11:22:59.275Z,51200
2018-03-07T11:23:59.247Z,47008
2018-03-07T11:24:59.773Z,47488
2018-03-07T11:25:59.280Z,36192
2018-03-07T11:26:59.560Z,50432
2018-03-07T11:27:59.842Z,21696
2018-03-07T11:28:59.740Z,13728
2018-03-07T11:29:59.639Z,13972
2018-03-07T11:30:59.651Z,50912
2018-03-07T11:31:59.675Z,56064
2018-03-07T11:32:59.485Z,24832
2018-03-07T11:33:59.716Z,45984
2018-03-07T11:34:59.991Z,38336
2018-03-07T11:36:00.023Z,58656
2018-03-07T11:37:00.056Z,39424
2018-03-07T11:37:59.813Z,17376
2018-03-07T11:38:59.824Z,17344
2018-03-07T11:39:59.878Z,13728
2018-03-07T11:41:00.137Z,15384
2018-03-07T11:41:59.903Z,26080
2018-03-07T11:43:00.181Z,17216
2018-03-07T11:43:59.950Z,11456
2018-03-07T11:45:00.001Z,10224
2018-03-07T11:46:00.260Z,9632
2018-03-07T11:47:00.046Z,10128
2018-03-07T11:48:00.096Z,31168
2018-03-07T11:49:00.071Z,40992
2018-03-07T11:50:00.337Z,14036
2018-03-07T11:51:00.120Z,60288
2018-03-07T11:52:00.150Z,14364
2018-03-07T11:53:00.446Z,14152
2018-03-07T11:54:00.196Z,12980
2018-03-07T11:55:00.464Z,14880
2018-03-07T11:56:00.480Z,12164
2018-03-07T11:57:00.253Z,11748
2018-03-07T11:58:00.278Z,11708
2018-03-07T11:59:00.302Z,12976
2018-03-07T12:00:00.325Z,12068
2018-03-07T12:01:00.607Z,13608
2018-03-07T12:01:59.857Z,32896
2018-03-07T12:03:00.387Z,65792
2018-03-07T12:04:00.720Z,76224
2018-03-07T12:05:00.179Z,78944
2018-03-07T12:06:00.711Z,17888
2018-03-07T12:06:59.969Z,14500
2018-03-07T12:07:59.997Z,14636
2018-03-07T12:09:00.526Z,21312
2018-03-07T12:10:00.554Z,27200
2018-03-07T12:11:00.824Z,41312
2018-03-07T12:12:00.590Z,51072
2018-03-07T12:13:00.366Z,82688
2018-03-07T12:14:00.387Z,20672
2018-03-07T12:15:00.920Z,81376
2018-03-07T12:16:00.702Z,69056
2018-03-07T12:17:00.715Z,19968
2018-03-07T12:18:00.999Z,27040
2018-03-07T12:19:00.810Z,70656
2018-03-07T12:20:01.060Z,24544
2018-03-07T12:21:00.560Z,79584
2018-03-07T12:22:00.587Z,17568
2018-03-07T12:23:00.864Z,64480
2018-03-07T12:24:00.880Z,22304
2018-03-07T12:25:00.913Z,18656
2018-03-07T12:26:00.943Z,66976
2018-03-07T12:27:00.962Z,30752
2018-03-07T12:28:01.049Z,28512
2018-03-07T12:29:01.271Z,82784
2018-03-07T12:30:00.794Z,74080
2018-03-07T12:31:01.072Z,69728
2018-03-07T12:32:01.096Z,60096
2018-03-07T12:33:01.188Z,57920
2018-03-07T12:34:01.043Z,61536
2018-03-07T12:35:00.918Z,63328
2018-03-07T12:36:01.463Z,67520
2018-03-07T12:37:00.976Z,68352
2018-03-07T12:38:01.249Z,66208
2018-03-07T12:39:01.279Z,65408
2018-03-07T12:40:01.316Z,74880
2018-03-07T12:41:01.351Z,56416
2018-03-07T12:42:01.108Z,12692
2018-03-07T12:43:01.645Z,13124
2018-03-07T12:44:01.417Z,11104
2018-03-07T12:45:01.453Z,38816
2018-03-07T12:46:01.472Z,11852
2018-03-07T12:47:01.786Z,13976
2018-03-07T12:48:01.323Z,26144
2018-03-07T12:49:01.934Z,11368
2018-03-07T12:50:01.584Z,13712
2018-03-07T12:51:01.635Z,68928
2018-03-07T12:52:01.882Z,66912
2018-03-07T12:53:01.650Z,50272
2018-03-07T12:54:01.690Z,10900
2018-03-07T12:55:01.964Z,8212
2018-03-07T12:56:01.987Z,7988
2018-03-07T12:57:01.766Z,8388
2018-03-07T12:58:02.045Z,48576
2018-03-07T12:59:02.060Z,12352
2018-03-07T13:00:02.081Z,32160
2018-03-07T13:01:02.216Z,48512
2018-03-07T13:02:02.126Z,22144
2018-03-07T13:03:02.171Z,73312
2018-03-07T13:04:02.237Z,74880
2018-03-07T13:05:02.219Z,77120
2018-03-07T13:06:01.982Z,72864
2018-03-07T13:07:02.017Z,68160
2018-03-07T13:08:01.777Z,65696
2018-03-07T13:09:02.084Z,67616
2018-03-07T13:10:02.084Z,70816
2018-03-07T13:11:02.117Z,67552
2018-03-07T13:12:02.398Z,70272
2018-03-07T13:13:02.213Z,67904
2018-03-07T13:14:02.187Z,69056
2018-03-07T13:15:01.960Z,72160
2018-03-07T13:16:02.503Z,71264
2018-03-07T13:17:02.032Z,69792
2018-03-07T13:18:02.039Z,61184
2018-03-07T13:19:02.379Z,82272
2018-03-07T13:20:02.599Z,57568
2018-03-07T13:21:02.375Z,29760
2018-03-07T13:22:02.404Z,31648
2018-03-07T13:23:02.691Z,44128
2018-03-07T13:24:02.720Z,69376
2018-03-07T13:25:02.483Z,29600
2018-03-07T13:26:02.762Z,78592
2018-03-07T13:27:02.524Z,71072
2018-03-07T13:28:02.303Z,67264
2018-03-07T13:29:02.591Z,63744
2018-03-07T13:30:02.608Z,64992
2018-03-07T13:31:02.640Z,65408
2018-03-07T13:32:02.675Z,64704
2018-03-07T13:33:02.950Z,64032
2018-03-07T13:34:02.767Z,59776
2018-03-07T13:35:03.000Z,55296
2018-03-07T13:36:02.774Z,52448
2018-03-07T13:37:03.063Z,52416
2018-03-07T13:38:02.836Z,31520
2018-03-07T13:39:02.907Z,44480
2018-03-07T13:40:03.148Z,21824
2018-03-07T13:41:02.916Z,25440
2018-03-07T13:42:03.196Z,26848
2018-03-07T13:43:02.708Z,28288
2018-03-07T13:44:02.998Z,25216
2018-03-07T13:45:03.032Z,29568
2018-03-07T13:46:03.065Z,50016
2018-03-07T13:47:03.075Z,21696
2018-03-07T13:48:02.598Z,17056
2018-03-07T13:49:03.436Z,16896
2018-03-07T13:50:03.415Z,18304
2018-03-07T13:51:02.929Z,18112
2018-03-07T13:52:02.950Z,37312
2018-03-07T13:53:03.488Z,22016
2018-03-07T13:54:03.532Z,24256
2018-03-07T13:55:03.307Z,22144
2018-03-07T13:56:03.329Z,21216
2018-03-07T13:57:03.330Z,21568
2018-03-07T13:58:03.435Z,21568
2018-03-07T13:59:03.380Z,16608
2018-03-07T14:00:03.403Z,14528